SBKG/CPV METAR and TAF weather

Enter ICAO airport designator
Station Type Date Time Source
SBKG METAR 2019/08/25 02:00 UTC NOAA

SBKG 250200Z 13006KT 9999 SCT013 22/20 Q1021


Station Type Date Time Source
SBKG Decoded METAR 2019/08/25 02:00 UTC NOAA

Station name not available
Aug 24, 2019 - 10:00 PM EDT / 2019.08.25 0200 UTC
Wind: from the SE (130 degrees) at 7 MPH (6 KT):0
Visibility: greater than 7 mile(s):0
Sky conditions: partly cloudy
Temperature: 71 F (22 C)
Dew Point: 68 F (20 C)
Relative Humidity: 88%
Pressure (altimeter): 30.15 in. Hg (1021 hPa)
ob: SBKG 250200Z 13006KT 9999 SCT013 22/20 Q1021
cycle: 2

Station Type Date Time Source
SBKG TAF 2019/08/25 00:33 UTC NOAA

TAF SBKG 242200Z 2500/2512 12005KT 9999 FEW015 TN19/2506Z TX22/2512Z
RMK PEH

Example: see airport list